Time;durP1;ratioP1;P1;durP2;ratioP2;P2;SDS_P1;SDS_P2;PMS_P1;PMS_P2;Temp;Humidity;BMP_temperature;BMP_pressure;BME280_temperature;BME280_humidity;BME280_pressure;Samples;Min_cycle;Max_cycle;Signal;HPM_P1;HPM_P2
2021/07/28 00:02:03;;;;;;;;;6.50;6.25;;;;;20.93;69.72;100770.63;4959511;28;45338;-66
2021/07/28 00:04:32;;;;;;;;;7.25;7.25;;;;;20.82;69.73;100746.16;4959743;28;45446;-66
2021/07/28 00:06:57;;;;;;;;;9.00;8.00;;;;;20.85;69.75;100756.81;4959560;28;45219;-66
2021/07/28 00:09:22;;;;;;;;;7.00;7.00;;;;;20.83;69.92;100747.88;4979913;28;46205;-66
2021/07/28 00:11:48;;;;;;;;;6.00;6.00;;;;;20.82;69.48;100749.75;4959547;28;45359;-66
2021/07/28 00:14:14;;;;;;;;;9.00;7.75;;;;;20.65;69.78;100721.19;4959592;28;45228;-66
2021/07/28 00:16:39;;;;;;;;;7.25;6.25;;;;;20.81;69.82;100745.28;4972159;28;45590;-66
2021/07/28 00:19:12;;;;;;;;;6.50;6.50;;;;;20.78;68.77;100741.94;4970648;28;47438;-66
2021/07/28 00:24:22;;;;;;;;;6.25;6.00;;;;;20.77;69.10;100748.38;4994768;28;45452;-66
2021/07/28 00:26:47;;;;;;;;;7.50;6.25;;;;;20.76;68.48;100743.91;5045674;28;45308;-66
2021/07/28 00:29:13;;;;;;;;;5.00;5.00;;;;;20.63;68.56;100728.56;4990649;27;47914;-66
2021/07/28 00:31:38;;;;;;;;;4.25;4.00;;;;;20.84;68.23;100763.19;4958787;28;45231;-66
2021/07/28 00:34:03;;;;;;;;;7.00;5.75;;;;;20.84;68.39;100755.06;4957791;28;45474;-65
2021/07/28 00:36:29;;;;;;;;;5.00;5.00;;;;;20.77;68.12;100745.66;4959023;28;45252;-66
2021/07/28 00:38:54;;;;;;;;;2.50;2.50;;;;;20.80;68.22;100751.72;4968465;28;45252;-66
2021/07/28 00:41:19;;;;;;;;;2.00;2.00;;;;;20.76;68.31;100752.06;4962815;28;45313;-66
2021/07/28 00:43:45;;;;;;;;;3.75;3.25;;;;;20.73;68.05;100745.88;4965819;28;45233;-65
2021/07/28 00:46:10;;;;;;;;;6.00;4.00;;;;;20.72;68.30;100744.13;4978671;28;45236;-65
2021/07/28 00:48:36;;;;;;;;;5.00;4.50;;;;;20.69;67.49;100740.78;4958878;28;46494;-65
2021/07/28 00:51:03;;;;;;;;;4.25;4.25;;;;;20.63;67.82;100723.16;4959010;28;45249;-66
2021/07/28 00:53:29;;;;;;;;;4.25;4.25;;;;;20.61;67.74;100730.47;4957750;28;45781;-66
2021/07/28 00:55:55;;;;;;;;;4.25;2.75;;;;;20.66;67.74;100741.88;4959010;28;45300;-66
2021/07/28 00:58:21;;;;;;;;;3.00;2.00;;;;;20.59;67.91;100737.88;4963465;28;47209;-65
2021/07/28 01:00:47;;;;;;;;;3.25;2.00;;;;;20.50;67.97;100725.00;4959058;28;45434;-65
2021/07/28 01:03:13;;;;;;;;;4.25;3.25;;;;;20.50;67.96;100738.56;4958969;28;45302;-66
2021/07/28 01:05:40;;;;;;;;;4.25;4.25;;;;;20.52;67.74;100750.16;4973782;28;45410;-65
2021/07/28 01:08:06;;;;;;;;;3.00;3.00;;;;;20.42;67.91;100736.41;4973841;28;46639;-66
2021/07/28 01:10:32;;;;;;;;;2.75;2.75;;;;;20.50;67.31;100752.97;4973936;28;45983;-66
2021/07/28 01:12:57;;;;;;;;;3.75;3.00;;;;;20.29;67.37;100725.59;4959116;28;45377;-65
2021/07/28 01:18:04;;;;;;;;;2.50;2.50;;;;;20.40;66.98;100738.38;4958276;28;45398;-65
2021/07/28 01:20:36;;;;;;;;;5.00;2.75;;;;;20.40;67.56;100748.34;4958689;28;45243;-66
2021/07/28 01:23:04;;;;;;;;;3.00;3.00;;;;;20.31;67.22;100745.34;4947335;28;45327;-65
2021/07/28 01:25:32;;;;;;;;;4.00;4.00;;;;;20.28;67.39;100751.00;4955652;28;45564;-66
2021/07/28 01:27:59;;;;;;;;;2.75;2.75;;;;;20.07;67.28;100720.03;4958320;28;46059;-65
2021/07/28 01:30:25;;;;;;;;;2.75;2.75;;;;;20.28;67.61;100756.41;4958398;28;45468;-65
2021/07/28 01:32:51;;;;;;;;;4.00;3.00;;;;;20.16;67.83;100747.34;4958577;28;45321;-66
2021/07/28 01:35:16;;;;;;;;;3.75;3.75;;;;;20.18;67.41;100750.78;4958671;28;45563;-66
2021/07/28 01:37:45;;;;;;;;;2.75;2.00;;;;;20.15;67.46;100753.72;4989859;28;47444;-66
2021/07/28 01:40:12;;;;;;;;;3.25;3.25;;;;;20.17;67.28;100761.75;4941195;28;45230;-65
2021/07/28 01:42:43;;;;;;;;;5.75;4.00;;;;;20.14;67.68;100753.81;4958543;28;45378;-66
2021/07/28 01:45:10;;;;;;;;;2.75;2.75;;;;;20.11;67.43;100752.22;4984706;28;45173;-66
2021/07/28 01:47:35;;;;;;;;;3.75;3.75;;;;;20.16;67.31;100765.41;4954952;28;46965;-66
2021/07/28 01:50:00;;;;;;;;;3.50;3.50;;;;;20.11;67.63;100756.75;4958466;28;45254;-66
2021/07/28 01:52:26;;;;;;;;;3.25;3.25;;;;;19.98;67.24;100733.28;4957014;28;45336;-65
2021/07/28 01:54:51;;;;;;;;;3.00;3.00;;;;;20.22;67.75;100785.81;4958383;28;45514;-65
2021/07/28 01:57:16;;;;;;;;;3.75;3.00;;;;;20.21;67.36;100771.38;4959180;28;45417;-66
2021/07/28 01:59:42;;;;;;;;;3.00;2.00;;;;;19.96;67.16;100737.94;4960328;28;45469;-66
2021/07/28 02:02:07;;;;;;;;;5.50;2.75;;;;;20.21;67.67;100790.34;4958098;28;45373;-66
2021/07/28 02:04:32;;;;;;;;;5.00;5.00;;;;;20.20;67.29;100790.44;4958078;28;45334;-65
2021/07/28 02:06:58;;;;;;;;;3.25;2.50;;;;;20.20;67.27;100785.91;4958064;28;46212;-65
2021/07/28 02:09:23;;;;;;;;;4.00;3.00;;;;;20.20;67.28;100785.91;4977151;28;45918;-66
2021/07/28 02:11:48;;;;;;;;;4.00;2.75;;;;;20.12;67.32;100761.22;4958288;28;45437;-66
2021/07/28 02:14:14;;;;;;;;;4.00;3.00;;;;;20.15;67.02;100761.00;4958203;28;45328;-65
2021/07/28 02:16:39;;;;;;;;;4.25;4.00;;;;;20.15;67.31;100783.53;4988764;28;46954;-65
2021/07/28 02:19:05;;;;;;;;;4.25;3.25;;;;;20.13;66.91;100779.19;4957805;28;45405;-66
2021/07/28 02:21:30;;;;;;;;;4.25;3.00;;;;;19.96;66.57;100745.19;4957969;28;45623;-66
2021/07/28 02:23:55;;;;;;;;;2.00;2.00;;;;;19.89;67.16;100741.19;4971890;28;45521;-66
2021/07/28 02:26:21;;;;;;;;;3.25;3.25;;;;;20.10;66.33;100782.13;4995544;28;45458;-66
2021/07/28 02:28:46;;;;;;;;;3.00;3.00;;;;;20.08;66.38;100782.25;4956584;28;45340;-66
2021/07/28 02:31:11;;;;;;;;;5.00;3.00;;;;;20.09;66.61;100777.69;4957623;28;45447;-66
2021/07/28 02:33:37;;;;;;;;;2.50;2.00;;;;;20.15;66.19;100783.53;4957568;28;45443;-66
2021/07/28 02:36:02;;;;;;;;;3.00;3.00;;;;;20.16;66.34;100785.28;4957706;28;47113;-66
2021/07/28 02:38:28;;;;;;;;;1.00;1.00;;;;;20.15;66.30;100780.81;4958358;28;45255;-66
2021/07/28 02:40:53;;;;;;;;;3.00;2.00;;;;;20.13;65.95;100776.47;4960891;28;45307;-66
2021/07/28 02:43:18;;;;;;;;;2.00;2.00;;;;;20.05;66.17;100765.34;4959414;28;45596;-66
2021/07/28 02:45:44;;;;;;;;;2.00;2.00;;;;;20.10;66.31;100768.59;4986435;28;46269;-66
2021/07/28 02:48:10;;;;;;;;;2.75;2.75;;;;;20.08;65.80;100771.41;4960228;28;45184;-66
2021/07/28 02:50:35;;;;;;;;;1.00;1.00;;;;;19.99;65.87;100758.50;4960811;28;45439;-66
2021/07/28 02:53:00;;;;;;;;;3.00;3.00;;;;;20.10;66.35;100780.28;4960447;28;45189;-66
2021/07/28 02:55:25;;;;;;;;;4.00;3.00;;;;;19.89;66.53;100747.47;4991713;28;48052;-66
2021/07/28 02:57:51;;;;;;;;;3.00;3.00;;;;;20.03;66.31;100776.28;4996431;27;45252;-66
2021/07/28 03:00:17;;;;;;;;;3.00;3.00;;;;;20.07;66.58;100782.34;4959319;28;45383;-66
2021/07/28 03:02:42;;;;;;;;;3.25;2.50;;;;;20.03;66.59;100781.72;4959993;28;45485;-66
2021/07/28 03:05:08;;;;;;;;;3.00;3.00;;;;;20.09;66.34;100789.38;4972358;28;45504;-66
2021/07/28 03:07:33;;;;;;;;;3.00;3.00;;;;;20.07;65.91;100795.91;4961325;28;45668;-66
2021/07/28 03:09:59;;;;;;;;;5.00;3.25;;;;;20.07;65.95;100804.03;4980971;28;45353;-66
2021/07/28 03:12:24;;;;;;;;;3.00;3.00;;;;;20.01;66.11;100796.34;4960125;28;45572;-66
2021/07/28 03:14:50;;;;;;;;;2.00;2.00;;;;;19.96;66.48;100800.25;4960210;28;46315;-66
2021/07/28 03:17:16;;;;;;;;;1.50;1.00;;;;;20.02;66.40;100812.47;4974598;28;45815;-66
2021/07/28 03:19:42;;;;;;;;;2.50;2.50;;;;;19.95;66.19;100787.66;4960430;28;45516;-66
2021/07/28 03:22:07;;;;;;;;;2.50;2.50;;;;;19.91;66.05;100785.28;4955840;28;45374;-66
2021/07/28 03:24:33;;;;;;;;;3.00;2.00;;;;;19.86;66.03;100777.47;5004544;28;46140;-66
2021/07/28 03:26:58;;;;;;;;;2.00;2.00;;;;;19.93;65.98;100795.03;4968232;28;45248;-66
2021/07/28 03:29:23;;;;;;;;;3.00;3.00;;;;;19.93;65.63;100791.44;4951603;28;45209;-66
2021/07/28 03:31:50;;;;;;;;;4.50;4.00;;;;;20.00;65.56;100811.72;4959644;28;45564;-66
2021/07/28 03:34:15;;;;;;;;;3.75;2.50;;;;;19.89;65.64;100792.66;4974741;28;47321;-66
2021/07/28 03:36:41;;;;;;;;;1.50;1.50;;;;;19.92;65.40;100814.97;4954055;28;45430;-66
2021/07/28 03:39:06;;;;;;;;;2.75;1.50;;;;;19.94;65.53;100809.44;4958157;28;45514;-66
2021/07/28 03:41:31;;;;;;;;;2.00;2.00;;;;;19.93;65.24;100805.88;4957382;28;45657;-66
2021/07/28 03:43:57;;;;;;;;;2.75;2.00;;;;;19.88;65.50;100799.03;4972104;28;47114;-66
2021/07/28 03:46:22;;;;;;;;;2.00;2.00;;;;;19.74;65.40;100767.47;4999420;28;45428;-66
2021/07/28 03:48:47;;;;;;;;;2.75;2.25;;;;;19.93;65.55;100813.13;5024759;28;45711;-66
2021/07/28 03:51:13;;;;;;;;;2.00;2.00;;;;;19.85;65.45;100807.41;4958661;28;45767;-66
2021/07/28 03:53:39;;;;;;;;;3.00;2.00;;;;;19.78;64.93;100799.69;4959292;28;46350;-66
2021/07/28 03:56:05;;;;;;;;;1.25;1.25;;;;;19.84;65.25;100806.50;4960024;28;45618;-66
2021/07/28 03:58:30;;;;;;;;;2.75;2.75;;;;;19.86;65.19;100815.41;4964328;28;45509;-66
2021/07/28 04:00:55;;;;;;;;;2.25;2.25;;;;;19.82;65.36;100819.31;4959761;28;45437;-66
2021/07/28 04:03:21;;;;;;;;;2.75;2.00;;;;;19.63;65.30;100789.91;4959226;28;46621;-66
2021/07/28 04:05:46;;;;;;;;;2.00;1.25;;;;;19.82;65.00;100822.00;4959723;28;45316;-66
2021/07/28 04:08:11;;;;;;;;;3.00;2.00;;;;;19.73;64.93;100812.66;5027049;28;45498;-66
2021/07/28 04:10:37;;;;;;;;;1.50;1.00;;;;;19.83;64.39;100831.00;4974257;28;45576;-66
2021/07/28 04:13:04;;;;;;;;;3.25;2.50;;;;;19.57;65.14;100787.63;4972262;28;46157;-66
2021/07/28 04:15:30;;;;;;;;;1.50;1.50;;;;;19.82;65.01;100832.00;4959771;28;45557;-66
2021/07/28 04:17:55;;;;;;;;;2.00;2.00;;;;;19.71;65.18;100811.03;4984320;28;45169;-66
2021/07/28 04:20:21;;;;;;;;;2.25;2.00;;;;;19.71;64.60;100821.84;4989299;28;45571;-66
2021/07/28 04:22:46;;;;;;;;;2.75;2.00;;;;;19.58;64.65;100797.50;4950015;28;45571;-66
2021/07/28 04:25:12;;;;;;;;;3.25;1.50;;;;;19.77;64.16;100837.72;4955828;28;45137;-66
2021/07/28 04:27:38;;;;;;;;;5.00;3.75;;;;;19.70;64.55;100828.25;4959742;28;45524;-66
2021/07/28 04:30:05;;;;;;;;;5.75;2.00;;;;;19.62;64.67;100821.53;4957921;28;45359;-66
2021/07/28 04:32:30;;;;;;;;;2.00;2.00;;;;;19.73;64.67;100841.56;4958913;28;45423;-66
2021/07/28 04:34:56;;;;;;;;;1.75;1.75;;;;;19.66;64.84;100832.13;4962342;28;45476;-66
2021/07/28 04:37:21;;;;;;;;;3.00;3.00;;;;;19.68;64.49;100838.31;4969270;28;45363;-66
2021/07/28 04:39:47;;;;;;;;;3.00;2.75;;;;;19.69;65.24;100837.34;5025600;28;45577;-66
2021/07/28 04:42:13;;;;;;;;;2.75;2.75;;;;;19.70;64.86;100844.50;4959002;28;46413;-66
2021/07/28 04:44:38;;;;;;;;;2.75;2.75;;;;;19.69;64.29;100842.78;4985714;28;45216;-66
2021/07/28 04:47:04;;;;;;;;;2.75;2.50;;;;;19.70;64.73;100844.50;4954711;28;45258;-66
2021/07/28 04:49:29;;;;;;;;;3.75;3.00;;;;;19.49;64.66;100819.78;4956089;28;45347;-66
2021/07/28 04:51:54;;;;;;;;;3.25;2.00;;;;;19.71;64.84;100844.41;4968842;28;45239;-66
2021/07/28 04:54:20;;;;;;;;;2.50;1.00;;;;;19.69;64.87;100840.91;4960951;28;45230;-66
2021/07/28 04:56:45;;;;;;;;;1.50;1.50;;;;;19.62;64.67;100828.78;4957903;28;45317;-66
2021/07/28 04:59:11;;;;;;;;;3.00;3.00;;;;;19.68;64.96;100839.19;4963488;28;45423;-66
2021/07/28 05:01:36;;;;;;;;;3.00;2.00;;;;;19.60;64.75;100828.88;4957710;28;45391;-66
2021/07/28 05:04:03;;;;;;;;;3.00;3.00;;;;;19.61;64.45;100827.03;4958887;28;45318;-66
2021/07/28 05:06:28;;;;;;;;;2.75;1.75;;;;;19.66;64.45;100835.72;4959070;28;45431;-66
2021/07/28 05:08:53;;;;;;;;;3.00;3.00;;;;;19.61;64.31;100824.31;4964135;28;45277;-66
2021/07/28 05:11:19;;;;;;;;;1.75;1.75;;;;;19.71;64.24;100848.94;4973859;28;45359;-66
2021/07/28 05:13:44;;;;;;;;;1.25;1.25;;;;;19.71;64.34;100848.94;4957494;28;45494;-66
2021/07/28 05:16:10;;;;;;;;;2.25;1.00;;;;;19.69;64.09;100854.47;4958597;28;45454;-66
2021/07/28 05:18:35;;;;;;;;;4.00;3.00;;;;;19.67;64.29;100852.84;4962318;28;45711;-66
2021/07/28 05:21:00;;;;;;;;;4.25;2.50;;;;;19.65;64.64;100842.13;4968061;28;45403;-66
2021/07/28 05:23:26;;;;;;;;;2.00;2.00;;;;;19.68;64.17;100843.72;4951903;28;45327;-66
2021/07/28 05:25:51;;;;;;;;;3.00;2.25;;;;;19.71;64.56;100851.66;5017751;28;45299;-66
2021/07/28 05:28:16;;;;;;;;;4.00;3.00;;;;;19.53;64.37;100838.41;4958748;28;45390;-66
2021/07/28 05:30:42;;;;;;;;;2.50;2.50;;;;;19.45;64.36;100811.00;4967084;28;45431;-66
2021/07/28 05:33:07;;;;;;;;;2.25;2.00;;;;;19.63;64.72;100844.94;4962513;28;45378;-66
2021/07/28 05:35:32;;;;;;;;;4.00;3.00;;;;;19.70;64.77;100855.34;4958839;28;45248;-66
2021/07/28 05:38:02;;;;;;;;;5.50;3.75;;;;;19.48;64.41;100812.59;4958369;28;45271;-66
2021/07/28 05:40:28;;;;;;;;;4.00;4.00;;;;;19.53;64.66;100829.41;4967791;28;46417;-66
2021/07/28 05:42:54;;;;;;;;;2.00;2.00;;;;;19.72;64.88;100861.53;4961867;28;45707;-66
2021/07/28 05:45:19;;;;;;;;;2.00;2.00;;;;;19.63;64.46;100844.06;4980816;28;45288;-66
2021/07/28 05:47:45;;;;;;;;;2.00;2.00;;;;;19.63;64.04;100855.75;4958089;28;45519;-66
2021/07/28 05:50:12;;;;;;;;;3.50;2.75;;;;;19.55;64.40;100841.03;4958405;28;46248;-66
2021/07/28 05:52:37;;;;;;;;;2.00;2.00;;;;;19.65;64.70;100865.63;4958335;28;45216;-66
2021/07/28 05:55:03;;;;;;;;;2.75;2.75;;;;;19.70;64.61;100874.31;4999543;28;45277;-66
2021/07/28 05:57:28;;;;;;;;;2.50;2.50;;;;;19.69;64.84;100869.84;4965879;28;45174;-66
2021/07/28 05:59:54;;;;;;;;;2.00;2.00;;;;;19.57;64.18;100853.47;4956966;28;48226;-66
2021/07/28 06:02:19;;;;;;;;;2.25;2.25;;;;;19.69;64.48;100872.56;4957675;28;45310;-66
2021/07/28 06:04:45;;;;;;;;;2.75;2.25;;;;;19.69;64.66;100875.25;4958493;28;45232;-66
2021/07/28 06:07:10;;;;;;;;;2.75;2.75;;;;;19.65;64.59;100869.19;4956914;28;45211;-65
2021/07/28 06:09:36;;;;;;;;;3.75;2.00;;;;;19.63;64.46;100876.56;4978395;28;45504;-65
2021/07/28 06:12:01;;;;;;;;;2.75;1.75;;;;;19.66;64.88;100881.75;4948217;28;45207;-65
2021/07/28 06:14:27;;;;;;;;;1.00;1.00;;;;;19.44;64.64;100844.44;4956662;28;46280;-64
2021/07/28 06:16:53;;;;;;;;;2.50;2.00;;;;;19.58;64.77;100871.47;4957490;28;45424;-64
2021/07/28 06:19:18;;;;;;;;;2.00;2.00;;;;;19.57;64.60;100871.56;4956608;28;47087;-65
2021/07/28 06:21:44;;;;;;;;;5.00;3.00;;;;;19.67;64.56;100886.19;4953240;28;45264;-64
2021/07/28 06:24:09;;;;;;;;;3.50;3.00;;;;;19.68;64.55;100892.47;4944556;28;45404;-64
2021/07/28 06:26:34;;;;;;;;;1.00;1.00;;;;;19.65;64.60;100887.28;4957784;28;45387;-64
2021/07/28 06:29:00;;;;;;;;;3.00;2.00;;;;;19.67;64.81;100896.19;4989228;28;47097;-64
2021/07/28 06:31:25;;;;;;;;;3.00;1.50;;;;;19.61;64.73;100892.91;4965396;28;45362;-64
2021/07/28 06:33:50;;;;;;;;;1.75;1.75;;;;;19.62;65.01;100893.78;4952804;28;45352;-64
2021/07/28 06:36:16;;;;;;;;;6.00;2.25;;;;;19.53;64.54;100879.03;4949253;28;45441;-64
2021/07/28 06:38:41;;;;;;;;;3.50;2.50;;;;;19.67;64.73;100899.75;4952931;28;47327;-64
2021/07/28 06:41:06;;;;;;;;;1.50;1.50;;;;;19.61;64.60;100889.31;4949013;28;45320;-64
2021/07/28 06:43:32;;;;;;;;;4.00;3.00;;;;;19.56;64.88;100872.50;4957690;28;45376;-64
2021/07/28 06:45:58;;;;;;;;;4.75;3.50;;;;;19.67;64.63;100898.88;5001358;28;45496;-64
2021/07/28 06:48:24;;;;;;;;;3.00;3.00;;;;;19.58;64.58;100882.28;4956540;28;45557;-64
2021/07/28 06:50:49;;;;;;;;;2.25;2.00;;;;;19.67;64.96;100888.91;4949026;28;45226;-64
2021/07/28 06:53:14;;;;;;;;;5.75;3.00;;;;;19.66;64.68;100889.88;4957473;28;45257;-64
2021/07/28 06:55:39;;;;;;;;;2.00;2.00;;;;;19.66;64.54;100884.44;4952240;28;45421;-64
2021/07/28 06:58:05;;;;;;;;;2.75;2.75;;;;;19.61;64.53;100884.78;4966734;28;46294;-66
2021/07/28 07:00:32;;;;;;;;;2.50;2.25;;;;;19.63;64.72;100893.66;4955311;28;45179;-65
2021/07/28 07:02:58;;;;;;;;;1.00;1.00;;;;;19.64;64.59;100894.53;4959722;28;45445;-65
2021/07/28 07:05:24;;;;;;;;;1.75;1.75;;;;;19.69;64.71;100903.19;4967253;28;45517;-65
2021/07/28 07:07:50;;;;;;;;;4.25;3.25;;;;;19.70;64.71;100907.66;4958292;28;46126;-65
2021/07/28 07:10:16;;;;;;;;;1.75;1.75;;;;;19.63;64.74;100890.09;4959926;28;45850;-67
2021/07/28 07:12:41;;;;;;;;;4.00;3.00;;;;;19.76;64.75;100912.69;4956216;28;45349;-66
2021/07/28 07:15:07;;;;;;;;;4.00;2.50;;;;;19.60;64.78;100877.63;4956561;28;45533;-65
2021/07/28 07:17:33;;;;;;;;;3.50;2.50;;;;;19.75;64.89;100910.09;4955351;28;47669;-65
2021/07/28 07:19:58;;;;;;;;;3.50;2.50;;;;;19.79;65.00;100912.47;4956609;28;45384;-66
2021/07/28 07:22:24;;;;;;;;;5.00;3.25;;;;;19.72;64.48;100900.28;4980907;28;45459;-66
2021/07/28 07:24:49;;;;;;;;;2.00;2.00;;;;;19.74;64.41;100908.31;5031747;28;45474;-66
2021/07/28 07:27:17;;;;;;;;;1.75;1.75;;;;;19.74;63.94;100900.19;4958912;28;46311;-65
2021/07/28 07:29:43;;;;;;;;;3.50;3.50;;;;;19.79;64.19;100912.47;4958942;28;46067;-66
2021/07/28 07:32:08;;;;;;;;;2.75;2.50;;;;;19.78;64.28;100907.19;4993036;28;45504;-65
2021/07/28 07:34:34;;;;;;;;;2.50;2.50;;;;;19.62;64.61;100878.38;4956807;28;45467;-65
2021/07/28 07:36:59;;;;;;;;;5.00;2.00;;;;;19.76;64.24;100898.25;4958679;28;45430;-66
2021/07/28 07:39:24;;;;;;;;;3.50;2.25;;;;;19.76;64.43;100900.97;4959095;28;45359;-66
2021/07/28 07:41:50;;;;;;;;;4.25;3.00;;;;;19.74;64.69;100892.06;4954324;28;45368;-65
2021/07/28 07:44:15;;;;;;;;;3.50;2.50;;;;;19.77;64.28;100900.00;4979013;28;45463;-65
2021/07/28 07:46:40;;;;;;;;;5.25;4.00;;;;;19.91;64.48;100916.19;4965499;28;48663;-65
2021/07/28 07:49:06;;;;;;;;;3.50;3.50;;;;;19.85;64.42;100900.34;4958791;28;45666;-65
2021/07/28 07:51:31;;;;;;;;;3.00;3.00;;;;;19.96;64.20;100914.03;4958985;28;45436;-65
2021/07/28 07:54:00;;;;;;;;;3.50;2.50;;;;;19.84;64.41;100890.47;4957416;28;45464;-65
2021/07/28 07:56:25;;;;;;;;;3.50;2.00;;;;;19.97;64.18;100915.75;4961124;28;47083;-65
2021/07/28 07:58:51;;;;;;;;;4.50;4.00;;;;;19.99;64.20;100918.34;5025472;28;45181;-65
2021/07/28 08:01:16;;;;;;;;;4.00;2.25;;;;;19.97;64.42;100909.47;4958778;28;45775;-70
2021/07/28 08:03:54;;;;;;;;;;;;;;;;;;;;;
2021/07/28 08:06:21;;;;;;;;;5.00;2.75;;;;;19.86;64.73;100880.41;4957891;28;75624;-68
2021/07/28 08:08:46;;;;;;;;;5.25;3.25;;;;;19.87;64.42;100882.16;4989836;28;45429;-68
2021/07/28 08:11:12;;;;;;;;;3.75;3.75;;;;;19.95;63.87;100890.63;4979205;28;45408;-66
2021/07/28 08:13:39;;;;;;;;;2.00;2.00;;;;;19.95;63.88;100884.34;4955743;28;45906;-71
2021/07/28 08:16:20;;;;;;;;;3.00;3.00;;;;;19.91;63.75;100877.38;4960067;28;46963;-69
2021/07/28 08:18:46;;;;;;;;;3.00;2.00;;;;;20.11;64.05;100894.97;4967639;28;45406;-70
2021/07/28 08:21:13;;;;;;;;;6.00;3.00;;;;;20.01;62.95;100892.03;4999784;28;45428;-69
2021/07/28 08:23:40;;;;;;;;;3.25;3.25;;;;;19.94;62.46;100874.47;4959734;28;46122;-72
2021/07/28 08:26:06;;;;;;;;;2.00;2.00;;;;;19.93;62.42;100884.44;5008829;28;45728;-73
2021/07/28 08:28:31;;;;;;;;;2.25;2.25;;;;;20.05;61.93;100895.41;4957260;28;45333;-73
2021/07/28 08:30:57;;;;;;;;;3.00;2.50;;;;;19.98;62.17;100881.41;4957007;28;45483;-73
2021/07/28 08:33:26;;;;;;;;;2.75;2.00;;;;;20.16;62.51;100898.22;4957187;28;45576;-72
2021/07/28 08:35:57;;;;;;;;;2.00;2.00;;;;;20.00;61.77;100874.03;4957505;28;47827;-73
2021/07/28 08:38:24;;;;;;;;;2.00;2.00;;;;;20.28;61.67;100908.22;4979444;28;45432;-72
2021/07/28 08:41:00;;;;;;;;;2.50;1.50;;;;;20.31;61.32;100907.09;4942841;28;45472;-73
2021/07/28 08:43:36;;;;;;;;;3.00;3.00;;;;;20.15;61.02;100877.53;4954617;28;45359;-72
2021/07/28 08:46:05;;;;;;;;;3.00;1.50;;;;;20.10;61.29;100863.44;4949299;28;46485;-72
2021/07/28 08:48:32;;;;;;;;;2.75;2.25;;;;;20.38;61.01;100904.81;4958792;28;45455;-72
2021/07/28 08:50:59;;;;;;;;;4.75;2.25;;;;;20.34;61.52;100894.19;4959311;28;45515;-72
2021/07/28 08:53:26;;;;;;;;;2.00;2.00;;;;;20.38;61.25;100900.28;4958588;28;45438;-73
2021/07/28 08:55:53;;;;;;;;;3.00;3.00;;;;;20.24;61.35;100874.16;4958822;28;45636;-73
2021/07/28 08:58:21;;;;;;;;;3.75;3.75;;;;;20.18;61.15;100863.75;4979114;28;45433;-74
2021/07/28 09:00:47;;;;;;;;;1.75;1.75;;;;;20.24;60.66;100873.28;4957632;28;45327;-73
2021/07/28 09:03:13;;;;;;;;;2.75;2.75;;;;;20.49;60.71;100907.66;4953973;28;46079;-73
2021/07/28 09:05:43;;;;;;;;;3.00;3.00;;;;;20.52;60.66;100913.72;4962764;28;45548;-70
2021/07/28 09:08:36;;;;;;;;;3.50;2.50;;;;;20.54;60.72;100924.44;4957274;28;46292;-71
2021/07/28 09:11:07;;;;;;;;;5.75;3.00;;;;;20.46;60.65;100900.59;4967854;28;45395;-73
2021/07/28 09:13:37;;;;;;;;;2.00;2.00;;;;;20.54;60.65;100919.88;4958678;28;45345;-70
2021/07/28 09:16:05;;;;;;;;;2.00;2.00;;;;;20.43;60.95;100897.22;4957932;28;46387;-70
2021/07/28 09:18:40;;;;;;;;;2.75;2.75;;;;;20.36;60.90;100886.84;4963565;28;45513;-70
2021/07/28 09:21:24;;;;;;;;;4.50;3.00;;;;;20.48;60.96;100903.19;4958391;28;45363;-70
2021/07/28 09:23:55;;;;;;;;;2.25;2.25;;;;;20.57;60.89;100918.81;4945058;28;45305;-70
2021/07/28 09:26:42;;;;;;;;;3.25;2.00;;;;;20.59;60.99;100924.13;4958300;28;45394;-70
2021/07/28 09:29:25;;;;;;;;;3.00;3.00;;;;;20.51;60.49;100903.88;4958400;28;45387;-70
2021/07/28 09:31:53;;;;;;;;;1.00;1.00;;;;;20.39;60.11;100882.16;4955835;28;45536;-70
2021/07/28 09:34:21;;;;;;;;;2.75;2.50;;;;;20.55;60.44;100902.66;4958226;28;45446;-70
2021/07/28 09:36:52;;;;;;;;;1.50;1.50;;;;;20.58;60.99;100911.53;4957943;28;45497;-70
2021/07/28 09:39:27;;;;;;;;;2.50;2.50;;;;;20.62;61.35;100918.50;4958475;28;45475;-70
2021/07/28 09:41:54;;;;;;;;;2.00;2.00;;;;;20.39;60.81;100874.03;4957997;28;45307;-70
2021/07/28 09:44:31;;;;;;;;;5.00;2.00;;;;;20.60;61.19;100905.03;4986399;28;45351;-69
2021/07/28 09:47:08;;;;;;;;;2.75;2.00;;;;;20.71;61.29;100920.56;4957521;28;45656;-69
2021/07/28 09:49:35;;;;;;;;;2.50;1.25;;;;;20.61;60.29;100898.63;4958011;28;45426;-70
2021/07/28 09:52:20;;;;;;;;;3.75;2.25;;;;;20.57;60.52;100898.97;4958145;28;45418;-69
2021/07/28 09:54:51;;;;;;;;;2.25;2.25;;;;;20.67;60.40;100903.63;4957790;28;45586;-70
2021/07/28 09:57:21;;;;;;;;;4.00;2.00;;;;;20.67;60.19;100895.50;4958677;28;45362;-70
2021/07/28 10:00:06;;;;;;;;;2.25;1.00;;;;;20.89;60.09;100927.34;4977148;28;45451;-71
2021/07/28 10:02:35;;;;;;;;;1.00;1.00;;;;;20.92;59.49;100931.72;5024586;28;45413;-71
2021/07/28 10:05:02;;;;;;;;;3.00;1.50;;;;;20.94;59.80;100927.03;4956941;28;45349;-70
2021/07/28 10:07:30;;;;;;;;;1.00;1.00;;;;;20.98;59.27;100923.13;4957930;28;46275;-71
2021/07/28 10:10:21;;;;;;;;;1.50;1.50;;;;;20.83;59.54;100880.81;4978218;28;45380;-72
2021/07/28 10:13:01;;;;;;;;;2.75;2.75;;;;;20.77;59.38;100865.88;4945522;28;45223;-73
2021/07/28 10:15:27;;;;;;;;;1.75;1.75;;;;;21.01;58.77;100898.44;4986278;28;45786;-72
2021/07/28 10:17:54;;;;;;;;;1.00;1.00;;;;;21.03;58.83;100890.19;4993739;28;46896;-70
2021/07/28 10:20:19;;;;;;;;;2.25;2.25;;;;;21.08;58.95;100896.16;4957571;28;45468;-70
2021/07/28 10:22:45;;;;;;;;;3.50;2.25;;;;;20.95;58.86;100871.78;4948549;28;45585;-70
2021/07/28 10:25:17;;;;;;;;;1.50;1.50;;;;;21.22;58.21;100915.00;4968784;28;45848;-74
2021/07/28 10:27:45;;;;;;;;;3.00;2.00;;;;;21.05;57.75;100883.69;4956137;28;48596;-70
2021/07/28 10:30:15;;;;;;;;;2.50;1.50;;;;;21.25;57.14;100911.19;4957279;28;45558;-70
2021/07/28 10:32:42;;;;;;;;;2.00;2.00;;;;;21.13;57.80;100893.97;4956100;28;45526;-70
2021/07/28 10:35:23;;;;;;;;;2.00;2.00;;;;;21.32;57.26;100915.19;4956189;28;45620;-70
2021/07/28 10:37:54;;;;;;;;;1.00;1.00;;;;;21.17;57.36;100884.63;4957088;28;45840;-71
2021/07/28 10:40:32;;;;;;;;;1.00;1.00;;;;;21.37;57.22;100920.28;4957405;28;45220;-70
2021/07/28 10:42:57;;;;;;;;;2.00;1.50;;;;;21.39;56.82;100924.59;4956496;28;45467;-70
2021/07/28 10:45:24;;;;;;;;;2.00;2.00;;;;;21.37;56.58;100918.41;4981847;28;45552;-70
2021/07/28 10:47:51;;;;;;;;;1.75;1.75;;;;;21.04;56.63;100852.09;4951270;28;47612;-70
2021/07/28 10:50:25;;;;;;;;;2.00;2.00;;;;;21.46;56.39;100909.56;4957262;28;45603;-70
2021/07/28 10:52:54;;;;;;;;;1.00;1.00;;;;;21.49;56.53;100918.50;4956920;28;45414;-70
2021/07/28 10:55:30;;;;;;;;;2.00;2.00;;;;;21.48;55.93;100914.06;4956929;28;45502;-70
2021/07/28 10:58:10;;;;;;;;;4.00;2.00;;;;;21.56;55.72;100900.75;4983120;28;45478;-69
2021/07/28 11:01:33;;;;;;;;;;;;;;;;;;;;;
2021/07/28 11:08:20;;;;;;;;;;;;;;;;;;;;;
2021/07/28 11:10:58;;;;;;;;;;;;;;;;;;;;;
2021/07/28 11:13:29;;;;;;;;;0.75;0.75;;;;;21.50;54.68;100883.09;4896165;28;71165;-65
2021/07/28 11:16:02;;;;;;;;;1.75;1.75;;;;;21.62;55.26;100890.28;4955804;28;45548;-66
2021/07/28 11:18:41;;;;;;;;;1.50;1.50;;;;;21.77;53.93;100904.56;4970469;28;45537;-66
2021/07/28 11:21:26;;;;;;;;;;;;;;;;;;;;;
2021/07/28 11:24:24;;;;;;;;;;;;;;;;;;;;;
2021/07/28 11:27:25;;;;;;;;;;;;;;;;;;;;;
2021/07/28 11:30:46;;;;;;;;;;;;;;;;;;;;;
2021/07/28 11:33:45;;;;;;;;;;;;;;;;;;;;;
2021/07/28 11:36:24;;;;;;;;;4.00;2.00;;;;;21.79;52.92;100896.28;4954886;28;72751;-66
2021/07/28 11:39:25;;;;;;;;;2.00;2.00;;;;;21.79;52.36;100882.69;4955978;28;45724;-66
2021/07/28 11:42:03;;;;;;;;;1.25;1.25;;;;;21.83;52.85;100897.75;4979114;28;46034;-66
2021/07/28 11:44:32;;;;;;;;;1.00;1.00;;;;;21.98;52.54;100925.59;4970904;28;47123;-66
2021/07/28 11:47:15;;;;;;;;;1.25;1.00;;;;;22.06;52.65;100935.91;4970554;28;45816;-65
2021/07/28 11:49:53;;;;;;;;;;;;;;;;;;;;;
2021/07/28 11:52:21;;;;;;;;;1.25;1.25;;;;;21.88;50.95;100900.13;4954745;28;73391;-65
2021/07/28 11:54:47;;;;;;;;;1.00;1.00;;;;;21.87;51.39;100909.25;4955503;28;45787;-65